createdAt,value
2022-08-07T00:00:41.045Z,39.54
2022-08-07T00:03:14.023Z,39.52
2022-08-07T00:05:46.999Z,39.67
2022-08-07T00:08:20.026Z,39.69
2022-08-07T00:10:57.442Z,39.18
2022-08-07T00:13:26.923Z,39.41
2022-08-07T00:15:59.054Z,39.02
2022-08-07T00:18:32.057Z,39.63
2022-08-07T00:21:08.301Z,39.39
2022-08-07T00:23:39.557Z,39.56
2022-08-07T00:26:18.519Z,39.60
2022-08-07T00:28:45.979Z,39.31
2022-08-07T00:31:17.874Z,39.64
2022-08-07T00:33:50.051Z,39.38
2022-08-07T00:36:23.026Z,39.50
2022-08-07T00:38:56.033Z,39.43
2022-08-07T00:41:29.009Z,39.50
2022-08-07T00:44:02.973Z,39.48
2022-08-07T00:46:35.083Z,39.05
2022-08-07T00:49:08.048Z,39.22
2022-08-07T00:51:57.141Z,38.49
2022-08-07T00:54:14.087Z,39.17
2022-08-07T00:56:49.804Z,39.35
2022-08-07T00:59:35.068Z,39.34
2022-08-07T01:01:53.125Z,38.89
2022-08-07T01:04:26.090Z,39.00
2022-08-07T01:06:59.095Z,38.76
2022-08-07T01:10:04.133Z,38.37
2022-08-07T01:12:29.045Z,38.74
2022-08-07T01:14:38.099Z,38.65
2022-08-07T01:17:11.092Z,38.60
2022-08-07T01:19:44.408Z,38.64
2022-08-07T01:22:22.870Z,38.46
2022-08-07T01:24:50.110Z,38.48
2022-08-07T01:27:23.118Z,38.19
2022-08-07T01:29:56.142Z,38.16
2022-08-07T01:32:29.144Z,38.16
2022-08-07T01:35:02.415Z,38.28
2022-08-07T01:37:36.136Z,37.97
2022-08-07T01:40:14.774Z,37.43
2022-08-07T01:42:58.685Z,37.93
2022-08-07T01:45:17.752Z,37.96
2022-08-07T01:48:21.486Z,37.99
2022-08-07T01:50:28.653Z,37.82
2022-08-07T01:52:55.022Z,37.43
2022-08-07T01:55:27.139Z,37.37
2022-08-07T01:58:06.921Z,37.32
2022-08-07T02:00:33.169Z,37.61
2022-08-07T02:03:11.942Z,37.55
2022-08-07T02:05:48.407Z,37.54
2022-08-07T02:08:14.017Z,37.34
2022-08-07T02:10:48.771Z,36.97
2022-08-07T02:13:18.177Z,36.76
2022-08-07T02:15:53.148Z,37.38
2022-08-07T02:18:25.886Z,37.48
2022-08-07T02:20:57.503Z,37.84
2022-08-07T02:23:30.204Z,37.63
2022-08-07T02:26:30.538Z,37.59
2022-08-07T02:28:36.181Z,37.63
2022-08-07T02:31:28.555Z,37.38
2022-08-07T02:34:03.206Z,37.10
2022-08-07T02:36:30.618Z,37.65
2022-08-07T02:38:50.618Z,37.77
2022-08-07T02:41:21.900Z,37.20
2022-08-07T02:43:57.212Z,37.03
2022-08-07T02:46:30.215Z,37.19
2022-08-07T02:49:03.405Z,37.02
2022-08-07T02:51:49.847Z,37.07
2022-08-07T02:54:09.244Z,37.50
2022-08-07T02:56:42.227Z,37.33
2022-08-07T02:59:15.254Z,37.09
2022-08-07T03:01:52.165Z,36.98
2022-08-07T03:04:21.268Z,36.64
2022-08-07T03:06:54.270Z,37.31
2022-08-07T03:09:44.603Z,36.76
2022-08-07T03:12:02.913Z,37.23
2022-08-07T03:14:33.332Z,37.43
2022-08-07T03:17:06.276Z,36.88
2022-08-07T03:19:39.319Z,36.59
2022-08-07T03:22:19.135Z,37.00
2022-08-07T03:24:45.276Z,36.79
2022-08-07T03:27:30.028Z,37.07
2022-08-07T03:29:51.469Z,36.57
2022-08-07T03:32:24.336Z,36.68
2022-08-07T03:35:16.633Z,37.32
2022-08-07T03:37:32.502Z,36.85
2022-08-07T03:40:15.940Z,36.66
2022-08-07T03:42:38.332Z,36.33
2022-08-07T03:45:11.318Z,36.49
2022-08-07T03:47:48.182Z,36.86
2022-08-07T03:50:17.320Z,37.00
2022-08-07T03:52:50.331Z,36.56
2022-08-07T03:55:23.274Z,36.59
2022-08-07T03:59:07.457Z,36.93
2022-08-07T04:00:33.429Z,37.07
2022-08-07T04:03:03.980Z,37.21
2022-08-07T04:05:40.811Z,37.05
2022-08-07T04:08:08.363Z,36.67
2022-08-07T04:10:42.427Z,37.13
2022-08-07T04:13:15.110Z,36.67
2022-08-07T04:15:48.918Z,36.52
2022-08-07T04:18:56.816Z,36.40
2022-08-07T04:20:54.374Z,36.75
2022-08-07T04:23:43.422Z,36.59
2022-08-07T04:25:59.382Z,36.25
2022-08-07T04:28:32.377Z,36.87
2022-08-07T04:31:05.435Z,37.09
2022-08-07T04:33:38.409Z,36.84
2022-08-07T04:36:11.369Z,36.93
2022-08-07T04:38:44.397Z,36.40
2022-08-07T04:41:19.055Z,36.79
2022-08-07T04:44:11.862Z,36.52
2022-08-07T04:46:25.938Z,37.18
2022-08-07T04:48:56.406Z,37.08
2022-08-07T04:51:29.431Z,37.19
2022-08-07T04:54:06.028Z,37.09
2022-08-07T04:58:14.032Z,37.00
2022-08-07T04:59:17.461Z,37.05
2022-08-07T05:01:41.418Z,37.02
2022-08-07T05:04:17.251Z,36.94
2022-08-07T05:06:51.541Z,37.26
2022-08-07T05:09:27.992Z,37.19
2022-08-07T05:11:58.627Z,36.94
2022-08-07T05:14:52.666Z,37.01
2022-08-07T05:16:59.460Z,37.00
2022-08-07T05:19:44.077Z,37.19
2022-08-07T05:22:05.414Z,37.14
2022-08-07T05:24:39.547Z,36.23
2022-08-07T05:27:23.440Z,36.93
2022-08-07T05:29:52.144Z,37.19
2022-08-07T05:32:17.460Z,37.19
2022-08-07T05:34:50.465Z,36.11
2022-08-07T05:37:25.270Z,36.93
2022-08-07T05:40:05.820Z,36.94
2022-08-07T05:42:34.729Z,36.84
2022-08-07T05:45:14.192Z,36.64
2022-08-07T05:47:38.094Z,36.76
2022-08-07T05:50:08.181Z,36.45
2022-08-07T05:52:41.274Z,36.37
2022-08-07T05:55:14.868Z,36.28
2022-08-07T05:57:47.316Z,36.23
2022-08-07T06:00:20.324Z,36.20
2022-08-07T06:02:53.627Z,36.20
2022-08-07T06:05:28.660Z,36.19
2022-08-07T06:08:13.284Z,36.12
2022-08-07T06:10:34.270Z,36.09
2022-08-07T06:13:07.327Z,36.11
2022-08-07T06:15:42.695Z,36.12
2022-08-07T06:18:14.080Z,36.11
2022-08-07T06:20:50.228Z,35.99
2022-08-07T06:23:45.754Z,36.08
2022-08-07T06:25:54.782Z,36.38
2022-08-07T06:28:27.542Z,36.59
2022-08-07T06:30:58.696Z,36.79
2022-08-07T06:33:33.198Z,36.75
2022-08-07T06:36:06.536Z,36.76
2022-08-07T06:38:37.573Z,36.57
2022-08-07T06:41:13.217Z,36.67
2022-08-07T06:43:46.674Z,36.63
2022-08-07T06:46:31.155Z,36.66
2022-08-07T06:48:50.354Z,36.58
2022-08-07T06:51:31.005Z,36.66
2022-08-07T06:55:27.919Z,36.66
2022-08-07T06:56:29.638Z,36.62
2022-08-07T07:00:13.313Z,36.58
2022-08-07T07:01:43.726Z,36.65
2022-08-07T07:04:28.007Z,36.61
2022-08-07T07:07:00.088Z,36.58
2022-08-07T07:09:14.592Z,36.55
2022-08-07T07:12:08.990Z,36.66
2022-08-07T07:14:21.775Z,36.55
2022-08-07T07:16:53.523Z,36.59
2022-08-07T07:19:55.342Z,36.50
2022-08-07T07:22:05.410Z,36.57
2022-08-07T07:24:32.620Z,36.50
2022-08-07T07:27:05.331Z,36.30
2022-08-07T07:29:57.514Z,36.33
2022-08-07T07:32:11.651Z,36.34
2022-08-07T07:34:44.643Z,36.39
2022-08-07T07:37:44.350Z,36.04
2022-08-07T07:39:54.408Z,36.10
2022-08-07T07:42:25.816Z,36.30
2022-08-07T07:44:56.385Z,36.20
2022-08-07T07:47:29.427Z,36.18
2022-08-07T07:50:35.772Z,36.81
2022-08-07T07:52:35.386Z,37.05
2022-08-07T07:55:08.343Z,37.12
2022-08-07T07:57:52.103Z,37.22
2022-08-07T08:00:20.787Z,37.35
2022-08-07T08:02:49.222Z,37.42
2022-08-07T08:05:20.380Z,37.50
2022-08-07T08:08:00.921Z,37.52
2022-08-07T08:10:37.946Z,37.61
2022-08-07T08:13:00.184Z,37.63
2022-08-07T08:15:57.497Z,37.71
2022-08-07T08:18:17.570Z,37.80
2022-08-07T08:20:38.481Z,37.80
2022-08-07T08:23:11.462Z,37.65
2022-08-07T08:25:49.084Z,37.84
2022-08-07T08:28:23.802Z,38.05
2022-08-07T08:30:51.050Z,38.03
2022-08-07T08:33:23.574Z,38.06
2022-08-07T08:35:56.435Z,38.10
2022-08-07T08:38:31.779Z,38.12
2022-08-07T08:41:02.855Z,38.14
2022-08-07T08:43:42.031Z,38.16
2022-08-07T08:46:08.729Z,38.19
2022-08-07T08:48:41.425Z,38.25
2022-08-07T08:51:26.146Z,38.24
2022-08-07T08:53:47.743Z,38.36
2022-08-07T08:56:24.386Z,38.34
2022-08-07T08:58:54.451Z,38.47
2022-08-07T09:01:30.025Z,38.52
2022-08-07T09:03:59.769Z,38.48
2022-08-07T09:06:32.488Z,38.57
2022-08-07T09:09:13.427Z,38.65
2022-08-07T09:11:43.539Z,38.74
2022-08-07T09:14:11.506Z,38.74
2022-08-07T09:16:45.643Z,38.78
2022-08-07T09:19:52.283Z,38.87
2022-08-07T09:22:10.354Z,38.91
2022-08-07T09:24:30.927Z,39.00
2022-08-07T09:26:57.172Z,39.08
2022-08-07T09:30:03.417Z,39.13
2022-08-07T09:32:02.803Z,38.96
2022-08-07T09:34:35.802Z,39.19
2022-08-07T09:37:08.830Z,39.42
2022-08-07T09:39:53.769Z,39.36
2022-08-07T09:42:17.259Z,38.64
2022-08-07T09:47:25.582Z,38.14
2022-08-07T09:47:52.259Z,38.09
2022-08-07T09:50:02.148Z,38.17
2022-08-07T09:52:34.257Z,38.21
2022-08-07T09:54:59.818Z,38.88
2022-08-07T09:57:32.894Z,38.72
2022-08-07T10:00:05.806Z,38.76
2022-08-07T10:02:38.805Z,38.85
2022-08-07T10:05:12.477Z,38.97
2022-08-07T10:07:52.957Z,38.92
2022-08-07T10:10:21.638Z,38.81
2022-08-07T10:12:52.914Z,38.76
2022-08-07T10:15:23.912Z,38.77
2022-08-07T10:18:00.921Z,38.77
2022-08-07T10:20:30.591Z,38.74
2022-08-07T10:23:02.918Z,38.76
2022-08-07T10:25:43.028Z,38.72
2022-08-07T10:28:08.892Z,38.73
2022-08-07T10:30:41.686Z,38.72
2022-08-07T10:33:15.292Z,38.67
2022-08-07T10:35:56.499Z,38.68
2022-08-07T10:38:42.357Z,38.69
2022-08-07T10:40:53.969Z,38.65
2022-08-07T10:43:34.067Z,38.68
2022-08-07T10:45:59.992Z,38.67
2022-08-07T10:48:34.969Z,38.65
2022-08-07T10:51:05.865Z,38.64
2022-08-07T10:53:44.350Z,38.59
2022-08-07T10:56:31.072Z,38.54
2022-08-07T10:58:46.093Z,38.50
2022-08-07T11:01:18.024Z,38.52
2022-08-07T11:03:54.911Z,38.57
2022-08-07T11:06:24.030Z,38.50
2022-08-07T11:08:56.958Z,38.53
2022-08-07T11:11:29.904Z,38.50
2022-08-07T11:14:44.756Z,38.46
2022-08-07T11:16:35.950Z,38.48
2022-08-07T11:19:08.969Z,38.49
2022-08-07T11:21:42.968Z,38.52
2022-08-07T11:24:16.861Z,38.58
2022-08-07T11:26:51.960Z,38.59
2022-08-07T11:29:41.972Z,38.58
2022-08-07T11:31:58.043Z,38.62
2022-08-07T11:34:30.663Z,38.59
2022-08-07T11:37:04.010Z,38.60
2022-08-07T11:39:59.441Z,38.60
2022-08-07T11:42:16.849Z,38.63
2022-08-07T11:44:52.442Z,38.53
2022-08-07T11:47:16.026Z,38.55
2022-08-07T11:50:18.775Z,38.51
2022-08-07T11:52:29.217Z,38.49
2022-08-07T11:54:57.060Z,38.54
2022-08-07T11:58:00.690Z,38.56
2022-08-07T12:00:12.653Z,38.53
2022-08-07T12:02:35.729Z,38.61
2022-08-07T12:05:28.287Z,38.56
2022-08-07T12:07:42.287Z,38.54
2022-08-07T12:10:15.026Z,38.49
2022-08-07T12:12:48.006Z,38.46
2022-08-07T12:15:46.703Z,38.53
2022-08-07T12:17:57.810Z,38.60
2022-08-07T12:20:30.855Z,38.54
2022-08-07T12:23:00.056Z,38.55
2022-08-07T12:26:21.984Z,38.63
2022-08-07T12:28:10.370Z,38.64
2022-08-07T12:30:38.787Z,38.57
2022-08-07T12:33:18.691Z,38.55
2022-08-07T12:35:48.200Z,38.56
2022-08-07T12:38:36.871Z,38.63
2022-08-07T12:40:51.246Z,38.65
2022-08-07T12:44:02.069Z,38.56
2022-08-07T12:45:57.160Z,38.55
2022-08-07T12:48:41.590Z,38.64
2022-08-07T12:51:12.916Z,38.67
2022-08-07T12:54:03.104Z,38.70
2022-08-07T12:56:09.504Z,38.67
2022-08-07T12:58:43.993Z,38.68
2022-08-07T13:01:15.259Z,38.66
2022-08-07T13:03:55.035Z,38.69
2022-08-07T13:06:26.832Z,38.70
2022-08-07T13:08:54.105Z,38.73
2022-08-07T13:11:27.098Z,38.74
2022-08-07T13:14:00.143Z,38.69
2022-08-07T13:16:33.142Z,38.68
2022-08-07T13:19:05.800Z,38.71
2022-08-07T13:21:58.929Z,38.72
2022-08-07T13:24:12.127Z,38.84
2022-08-07T13:26:46.379Z,38.89
2022-08-07T13:29:19.283Z,38.98
2022-08-07T13:31:57.227Z,39.07
2022-08-07T13:34:32.872Z,39.17
2022-08-07T13:37:00.198Z,39.24
2022-08-07T13:40:32.871Z,39.32
2022-08-07T13:42:06.161Z,39.32
2022-08-07T13:44:39.161Z,39.29
2022-08-07T13:47:15.959Z,39.33
2022-08-07T13:50:32.784Z,39.32
2022-08-07T13:52:32.107Z,39.34
2022-08-07T13:54:51.164Z,39.29
2022-08-07T13:57:24.419Z,39.27
2022-08-07T13:59:57.202Z,39.32
2022-08-07T14:02:39.543Z,39.32
2022-08-07T14:05:03.202Z,39.33
2022-08-07T14:07:36.185Z,39.30
2022-08-07T14:10:16.432Z,39.30
2022-08-07T14:12:42.200Z,39.44
2022-08-07T14:15:15.317Z,39.42
2022-08-07T14:18:24.256Z,39.40
2022-08-07T14:20:42.076Z,39.43
2022-08-07T14:22:54.318Z,39.44
2022-08-07T14:25:29.388Z,39.49
2022-08-07T14:28:11.544Z,39.55
2022-08-07T14:30:33.405Z,39.54
2022-08-07T14:33:07.229Z,39.52
2022-08-07T14:35:45.738Z,39.51
2022-08-07T14:40:49.525Z,39.53
2022-08-07T14:43:55.412Z,39.60
2022-08-07T14:45:54.762Z,39.67
2022-08-07T14:48:27.215Z,39.73
2022-08-07T14:50:58.230Z,39.85
2022-08-07T14:53:49.987Z,39.92
2022-08-07T14:56:04.238Z,40.03
2022-08-07T14:58:37.305Z,40.09
2022-08-07T15:01:22.667Z,40.05
2022-08-07T15:03:52.340Z,40.12
2022-08-07T15:06:16.258Z,40.09
2022-08-07T15:08:53.124Z,40.13
2022-08-07T15:11:53.359Z,40.15
2022-08-07T15:13:55.344Z,40.17
2022-08-07T15:16:33.848Z,40.24
2022-08-07T15:19:01.318Z,40.26
2022-08-07T15:21:44.920Z,40.21
2022-08-07T15:25:14.673Z,40.24
2022-08-07T15:26:40.242Z,40.51
2022-08-07T15:30:09.207Z,40.54
2022-08-07T15:31:57.720Z,40.06
2022-08-07T15:34:19.313Z,39.88
2022-08-07T15:39:25.383Z,39.90
2022-08-07T15:42:45.707Z,39.95
2022-08-07T15:44:31.377Z,40.11
2022-08-07T15:47:08.971Z,40.22
2022-08-07T15:50:06.461Z,40.23
2022-08-07T15:52:13.838Z,40.37
2022-08-07T15:54:44.070Z,40.28
2022-08-07T15:57:27.904Z,40.55
2022-08-07T15:59:50.384Z,40.66
2022-08-07T16:02:27.359Z,40.71
2022-08-07T16:04:56.347Z,40.78
2022-08-07T16:07:32.050Z,40.85
2022-08-07T16:10:03.356Z,40.97
2022-08-07T16:12:38.058Z,41.06
2022-08-07T16:15:09.374Z,41.11
2022-08-07T16:18:02.588Z,41.17
2022-08-07T16:20:34.022Z,41.22
2022-08-07T16:22:55.314Z,41.42
2022-08-07T16:25:22.984Z,41.41
2022-08-07T16:27:57.162Z,41.64
2022-08-07T16:30:30.499Z,41.47
2022-08-07T16:33:00.354Z,41.53
2022-08-07T16:35:58.871Z,41.55
2022-08-07T16:38:09.534Z,41.59
2022-08-07T16:40:57.405Z,41.67
2022-08-07T16:43:12.391Z,41.91
2022-08-07T16:46:47.136Z,41.92
2022-08-07T16:48:28.692Z,41.92
2022-08-07T16:51:21.706Z,42.09
2022-08-07T16:54:01.412Z,42.02
2022-08-07T16:56:01.415Z,42.11
2022-08-07T16:59:02.357Z,41.87
2022-08-07T17:01:07.778Z,42.17
2022-08-07T17:03:59.371Z,42.06
2022-08-07T17:06:29.362Z,42.27
2022-08-07T17:11:20.486Z,42.99
2022-08-07T17:14:18.977Z,43.18
2022-08-07T17:16:26.450Z,43.23
2022-08-07T17:18:59.532Z,43.08
2022-08-07T17:21:50.675Z,43.17
2022-08-07T17:24:05.579Z,43.20
2022-08-07T17:26:50.133Z,43.10
2022-08-07T17:30:13.093Z,43.25
2022-08-07T17:32:02.621Z,43.35
2022-08-07T17:34:34.671Z,43.19
2022-08-07T17:36:59.845Z,43.13
2022-08-07T17:39:23.626Z,42.98
2022-08-07T17:42:04.558Z,43.06
2022-08-07T17:44:43.909Z,43.23
2022-08-07T17:47:02.505Z,43.26
2022-08-07T17:49:44.728Z,43.27
2022-08-07T17:52:12.651Z,43.30
2022-08-07T17:54:54.068Z,43.19
2022-08-07T17:57:18.814Z,43.21
2022-08-07T17:59:51.423Z,43.26
2022-08-07T18:02:24.498Z,43.23
2022-08-07T18:04:57.571Z,43.30
2022-08-07T18:07:34.424Z,43.27
2022-08-07T18:10:05.555Z,43.23
2022-08-07T18:12:37.342Z,43.16
2022-08-07T18:15:10.224Z,43.08
2022-08-07T18:18:47.013Z,43.06
2022-08-07T18:21:09.411Z,43.13
2022-08-07T18:22:49.517Z,43.10
2022-08-07T18:25:39.407Z,43.15
2022-08-07T18:27:55.367Z,43.18
2022-08-07T18:30:32.456Z,43.18
2022-08-07T18:33:10.787Z,43.05
2022-08-07T18:35:51.461Z,43.07
2022-08-07T18:38:56.298Z,43.07
2022-08-07T18:40:50.250Z,43.03
2022-08-07T18:43:15.076Z,41.95
2022-08-07T18:46:25.316Z,40.51
2022-08-07T18:50:05.309Z,39.50
2022-08-07T18:50:52.301Z,38.61
2022-08-07T18:53:39.283Z,38.11
2022-08-07T18:55:58.273Z,34.29
2022-08-07T18:58:31.642Z,33.06
2022-08-07T19:01:05.020Z,31.94
2022-08-07T19:03:38.938Z,30.98
2022-08-07T19:06:10.295Z,31.41
2022-08-07T19:08:43.351Z,31.17
2022-08-07T19:11:36.268Z,30.55
2022-08-07T19:13:50.263Z,30.19
2022-08-07T19:17:04.275Z,33.48
2022-08-07T19:18:55.347Z,34.06
2022-08-07T19:21:47.574Z,33.17
2022-08-07T19:24:03.322Z,33.17
2022-08-07T19:28:28.357Z,33.22
2022-08-07T19:31:06.451Z,33.54
2022-08-07T19:32:07.918Z,31.38
2022-08-07T19:34:15.478Z,30.83
2022-08-07T19:36:51.780Z,29.93
2022-08-07T19:39:27.959Z,29.61
2022-08-07T19:42:08.059Z,29.71
2022-08-07T19:44:31.366Z,29.97
2022-08-07T19:47:00.442Z,29.71
2022-08-07T19:49:57.722Z,29.69
2022-08-07T19:52:06.344Z,29.56
2022-08-07T19:54:55.730Z,30.25
2022-08-07T19:58:00.368Z,30.79
2022-08-07T19:59:45.386Z,30.24
2022-08-07T20:02:19.813Z,29.98
2022-08-07T20:04:51.880Z,29.97
2022-08-07T20:07:26.947Z,29.83
2022-08-07T20:10:36.797Z,29.82
2022-08-07T20:12:34.988Z,29.74
2022-08-07T20:15:03.570Z,29.85
2022-08-07T20:17:38.804Z,29.88
2022-08-07T20:20:09.766Z,29.87
2022-08-07T20:22:42.725Z,30.28
2022-08-07T20:25:19.612Z,31.15
2022-08-07T20:27:58.672Z,30.85
2022-08-07T20:30:22.358Z,30.62
2022-08-07T20:32:54.435Z,30.50
2022-08-07T20:35:27.703Z,30.38
2022-08-07T20:38:00.840Z,30.42
2022-08-07T20:40:34.912Z,30.12
2022-08-07T20:43:09.646Z,29.97
2022-08-07T20:46:26.518Z,29.89
2022-08-07T20:48:12.786Z,29.76
2022-08-07T20:50:45.524Z,29.76
2022-08-07T20:53:18.811Z,29.97
2022-08-07T20:55:51.541Z,30.08
2022-08-07T20:58:28.285Z,29.77
2022-08-07T21:00:57.467Z,29.75
2022-08-07T21:03:30.844Z,30.00
2022-08-07T21:06:03.709Z,30.16
2022-08-07T21:08:39.267Z,29.99
2022-08-07T21:11:10.905Z,29.59
2022-08-07T21:13:43.674Z,29.98
2022-08-07T21:16:15.577Z,29.93
2022-08-07T21:18:50.520Z,29.44
2022-08-07T21:21:21.541Z,29.65
2022-08-07T21:23:54.593Z,29.52
2022-08-07T21:26:29.038Z,29.72
2022-08-07T21:29:00.506Z,29.86
2022-08-07T21:32:42.043Z,30.36
2022-08-07T21:34:06.890Z,29.97
2022-08-07T21:36:40.149Z,29.93
2022-08-07T21:39:46.128Z,31.74
2022-08-07T21:41:52.062Z,31.50
2022-08-07T21:44:25.403Z,30.45
2022-08-07T21:46:51.873Z,30.27
2022-08-07T21:49:25.691Z,29.90
2022-08-07T21:51:57.941Z,29.77
2022-08-07T21:54:30.887Z,29.30
2022-08-07T21:57:03.856Z,29.55
2022-08-07T22:00:04.404Z,29.19
2022-08-07T22:02:12.722Z,29.46
2022-08-07T22:04:51.352Z,29.23
2022-08-07T22:07:15.637Z,29.60
2022-08-07T22:09:54.485Z,29.46
2022-08-07T22:12:27.071Z,29.05
2022-08-07T22:14:59.817Z,29.36
2022-08-07T22:17:27.884Z,29.53
2022-08-07T22:20:00.951Z,29.07
2022-08-07T22:22:34.296Z,29.38
2022-08-07T22:25:07.615Z,29.39
2022-08-07T22:28:07.852Z,29.32
2022-08-07T22:30:12.917Z,29.38
2022-08-07T22:32:45.894Z,29.28
2022-08-07T22:35:18.958Z,29.20
2022-08-07T22:38:04.423Z,29.15
2022-08-07T22:40:24.938Z,29.36
2022-08-07T22:42:58.243Z,29.05
2022-08-07T22:46:40.417Z,29.65
2022-08-07T22:48:03.967Z,29.41
2022-08-07T22:50:36.982Z,29.86
2022-08-07T22:53:09.917Z,29.62
2022-08-07T22:55:42.922Z,30.09
2022-08-07T22:58:15.983Z,30.18
2022-08-07T23:00:48.937Z,30.07
2022-08-07T23:03:23.955Z,30.03
2022-08-07T23:06:08.274Z,30.42
2022-08-07T23:08:30.650Z,30.75
2022-08-07T23:11:00.964Z,30.40
2022-08-07T23:13:48.713Z,30.48
2022-08-07T23:16:13.060Z,30.42
2022-08-07T23:18:42.413Z,30.22
2022-08-07T23:21:16.300Z,30.20
2022-08-07T23:24:05.534Z,29.65
2022-08-07T23:26:19.014Z,29.99
2022-08-07T23:28:54.609Z,29.73
2022-08-07T23:32:50.197Z,29.66
2022-08-07T23:34:34.504Z,29.79
2022-08-07T23:36:30.973Z,29.47
2022-08-07T23:39:04.877Z,29.42
2022-08-07T23:42:01.875Z,29.21
2022-08-07T23:44:10.034Z,29.43
2022-08-07T23:46:43.277Z,29.76
2022-08-07T23:49:16.045Z,29.73
2022-08-07T23:53:01.378Z,29.58
2022-08-07T23:54:36.177Z,29.39
2022-08-07T23:56:55.059Z,29.15
